sensor_id;sensor_type;location;lat;lon;timestamp;temperature;humidity
52245;DHT22;55759;51.586;-1.758;2024-03-08T00:01:06;5.50;82.10
52245;DHT22;55759;51.586;-1.758;2024-03-08T00:03:32;5.40;82.40
52245;DHT22;55759;51.586;-1.758;2024-03-08T00:05:58;5.40;82.30
52245;DHT22;55759;51.586;-1.758;2024-03-08T00:08:23;5.40;82.30
52245;DHT22;55759;51.586;-1.758;2024-03-08T00:10:49;5.40;82.30
52245;DHT22;55759;51.586;-1.758;2024-03-08T00:13:14;5.30;82.60
52245;DHT22;55759;51.586;-1.758;2024-03-08T00:15:40;5.20;82.70
52245;DHT22;55759;51.586;-1.758;2024-03-08T00:18:06;5.20;82.90
52245;DHT22;55759;51.586;-1.758;2024-03-08T00:20:32;5.20;83.00
52245;DHT22;55759;51.586;-1.758;2024-03-08T00:22:58;5.10;83.20
52245;DHT22;55759;51.586;-1.758;2024-03-08T00:25:24;5.10;83.40
52245;DHT22;55759;51.586;-1.758;2024-03-08T00:27:49;5.00;83.60
52245;DHT22;55759;51.586;-1.758;2024-03-08T00:30:15;5.00;83.80
52245;DHT22;55759;51.586;-1.758;2024-03-08T00:32:41;4.90;84.00
52245;DHT22;55759;51.586;-1.758;2024-03-08T00:35:06;4.90;84.10
52245;DHT22;55759;51.586;-1.758;2024-03-08T00:37:32;4.80;84.30
52245;DHT22;55759;51.586;-1.758;2024-03-08T00:39:59;4.80;84.60
52245;DHT22;55759;51.586;-1.758;2024-03-08T00:42:25;4.70;84.80
52245;DHT22;55759;51.586;-1.758;2024-03-08T00:44:50;4.70;85.00
52245;DHT22;55759;51.586;-1.758;2024-03-08T00:47:19;4.70;85.10
52245;DHT22;55759;51.586;-1.758;2024-03-08T00:49:44;4.60;85.30
52245;DHT22;55759;51.586;-1.758;2024-03-08T00:52:10;4.60;85.60
52245;DHT22;55759;51.586;-1.758;2024-03-08T00:54:36;4.60;85.70
52245;DHT22;55759;51.586;-1.758;2024-03-08T00:57:01;4.60;85.70
52245;DHT22;55759;51.586;-1.758;2024-03-08T00:59:28;4.50;85.80
52245;DHT22;55759;51.586;-1.758;2024-03-08T01:01:54;4.50;85.90
52245;DHT22;55759;51.586;-1.758;2024-03-08T01:04:20;4.40;86.00
52245;DHT22;55759;51.586;-1.758;2024-03-08T01:06:46;4.40;86.10
52245;DHT22;55759;51.586;-1.758;2024-03-08T01:09:12;4.40;86.20
52245;DHT22;55759;51.586;-1.758;2024-03-08T01:11:38;4.40;86.30
52245;DHT22;55759;51.586;-1.758;2024-03-08T01:14:04;4.50;86.40
52245;DHT22;55759;51.586;-1.758;2024-03-08T01:16:29;4.40;86.60
52245;DHT22;55759;51.586;-1.758;2024-03-08T01:18:55;4.40;86.70
52245;DHT22;55759;51.586;-1.758;2024-03-08T01:21:20;4.40;86.70
52245;DHT22;55759;51.586;-1.758;2024-03-08T01:23:47;4.40;86.90
52245;DHT22;55759;51.586;-1.758;2024-03-08T01:26:13;4.30;86.90
52245;DHT22;55759;51.586;-1.758;2024-03-08T01:28:40;4.30;87.00
52245;DHT22;55759;51.586;-1.758;2024-03-08T01:31:05;4.30;87.10
52245;DHT22;55759;51.586;-1.758;2024-03-08T01:33:31;4.30;87.20
52245;DHT22;55759;51.586;-1.758;2024-03-08T01:35:57;4.40;87.20
52245;DHT22;55759;51.586;-1.758;2024-03-08T01:38:23;4.40;87.30
52245;DHT22;55759;51.586;-1.758;2024-03-08T01:40:49;4.40;87.30
52245;DHT22;55759;51.586;-1.758;2024-03-08T01:43:21;4.50;87.30
52245;DHT22;55759;51.586;-1.758;2024-03-08T01:45:48;4.50;87.30
52245;DHT22;55759;51.586;-1.758;2024-03-08T01:48:14;4.60;87.20
52245;DHT22;55759;51.586;-1.758;2024-03-08T01:50:40;4.70;87.10
52245;DHT22;55759;51.586;-1.758;2024-03-08T01:53:06;4.80;86.90
52245;DHT22;55759;51.586;-1.758;2024-03-08T01:55:32;4.80;86.80
52245;DHT22;55759;51.586;-1.758;2024-03-08T01:57:58;4.80;86.60
52245;DHT22;55759;51.586;-1.758;2024-03-08T02:00:24;4.90;86.60
52245;DHT22;55759;51.586;-1.758;2024-03-08T02:02:53;4.90;86.70
52245;DHT22;55759;51.586;-1.758;2024-03-08T02:05:19;4.90;86.70
52245;DHT22;55759;51.586;-1.758;2024-03-08T02:07:45;4.90;86.60
52245;DHT22;55759;51.586;-1.758;2024-03-08T02:10:10;4.90;86.70
52245;DHT22;55759;51.586;-1.758;2024-03-08T02:12:38;4.80;86.70
52245;DHT22;55759;51.586;-1.758;2024-03-08T02:15:04;4.70;86.90
52245;DHT22;55759;51.586;-1.758;2024-03-08T02:17:32;4.70;87.20
52245;DHT22;55759;51.586;-1.758;2024-03-08T02:19:59;4.70;87.30
52245;DHT22;55759;51.586;-1.758;2024-03-08T02:22:27;4.70;87.30
52245;DHT22;55759;51.586;-1.758;2024-03-08T02:24:54;4.70;87.50
52245;DHT22;55759;51.586;-1.758;2024-03-08T02:27:26;4.70;87.60
52245;DHT22;55759;51.586;-1.758;2024-03-08T02:29:53;4.70;87.70
52245;DHT22;55759;51.586;-1.758;2024-03-08T02:32:21;4.70;87.70
52245;DHT22;55759;51.586;-1.758;2024-03-08T02:34:47;4.70;87.70
52245;DHT22;55759;51.586;-1.758;2024-03-08T02:37:13;4.70;87.90
52245;DHT22;55759;51.586;-1.758;2024-03-08T02:39:38;4.60;88.00
52245;DHT22;55759;51.586;-1.758;2024-03-08T02:42:04;4.60;88.10
52245;DHT22;55759;51.586;-1.758;2024-03-08T02:44:29;4.50;88.30
52245;DHT22;55759;51.586;-1.758;2024-03-08T02:46:55;4.50;88.50
52245;DHT22;55759;51.586;-1.758;2024-03-08T02:49:21;4.50;88.60
52245;DHT22;55759;51.586;-1.758;2024-03-08T02:51:46;4.60;88.70
52245;DHT22;55759;51.586;-1.758;2024-03-08T02:54:12;4.60;88.80
52245;DHT22;55759;51.586;-1.758;2024-03-08T02:56:37;4.70;88.80
52245;DHT22;55759;51.586;-1.758;2024-03-08T02:59:03;4.70;88.80
52245;DHT22;55759;51.586;-1.758;2024-03-08T03:01:28;4.80;88.70
52245;DHT22;55759;51.586;-1.758;2024-03-08T03:03:54;4.80;88.50
52245;DHT22;55759;51.586;-1.758;2024-03-08T03:06:19;4.90;88.50
52245;DHT22;55759;51.586;-1.758;2024-03-08T03:08:46;4.90;88.50
52245;DHT22;55759;51.586;-1.758;2024-03-08T03:11:12;5.00;88.40
52245;DHT22;55759;51.586;-1.758;2024-03-08T03:13:39;5.10;88.20
52245;DHT22;55759;51.586;-1.758;2024-03-08T03:16:04;5.10;88.10
52245;DHT22;55759;51.586;-1.758;2024-03-08T03:18:30;5.10;88.00
52245;DHT22;55759;51.586;-1.758;2024-03-08T03:20:58;5.20;87.80
52245;DHT22;55759;51.586;-1.758;2024-03-08T03:23:25;5.20;87.70
52245;DHT22;55759;51.586;-1.758;2024-03-08T03:25:51;5.20;87.60
52245;DHT22;55759;51.586;-1.758;2024-03-08T03:28:17;5.20;87.50
52245;DHT22;55759;51.586;-1.758;2024-03-08T03:30:46;5.30;87.40
52245;DHT22;55759;51.586;-1.758;2024-03-08T03:33:12;5.20;87.30
52245;DHT22;55759;51.586;-1.758;2024-03-08T03:35:38;5.10;87.30
52245;DHT22;55759;51.586;-1.758;2024-03-08T03:38:03;5.20;87.20
52245;DHT22;55759;51.586;-1.758;2024-03-08T03:40:32;5.20;87.30
52245;DHT22;55759;51.586;-1.758;2024-03-08T03:42:58;5.20;87.40
52245;DHT22;55759;51.586;-1.758;2024-03-08T03:45:24;5.10;87.40
52245;DHT22;55759;51.586;-1.758;2024-03-08T03:47:49;5.20;87.40
52245;DHT22;55759;51.586;-1.758;2024-03-08T03:50:15;5.20;87.30
52245;DHT22;55759;51.586;-1.758;2024-03-08T03:52:45;5.20;87.20
52245;DHT22;55759;51.586;-1.758;2024-03-08T03:55:10;5.20;87.20
52245;DHT22;55759;51.586;-1.758;2024-03-08T03:57:37;5.20;87.20
52245;DHT22;55759;51.586;-1.758;2024-03-08T04:00:03;5.20;87.30
52245;DHT22;55759;51.586;-1.758;2024-03-08T04:02:30;5.20;87.20
52245;DHT22;55759;51.586;-1.758;2024-03-08T04:04:55;5.10;87.20
52245;DHT22;55759;51.586;-1.758;2024-03-08T04:07:21;5.10;87.40
52245;DHT22;55759;51.586;-1.758;2024-03-08T04:09:46;5.10;87.40
52245;DHT22;55759;51.586;-1.758;2024-03-08T04:12:12;5.00;87.50
52245;DHT22;55759;51.586;-1.758;2024-03-08T04:14:39;5.00;87.70
52245;DHT22;55759;51.586;-1.758;2024-03-08T04:17:05;5.00;87.80
52245;DHT22;55759;51.586;-1.758;2024-03-08T04:19:31;5.10;87.80
52245;DHT22;55759;51.586;-1.758;2024-03-08T04:21:56;5.10;87.80
52245;DHT22;55759;51.586;-1.758;2024-03-08T04:24:22;5.10;87.70
52245;DHT22;55759;51.586;-1.758;2024-03-08T04:26:48;5.10;87.70
52245;DHT22;55759;51.586;-1.758;2024-03-08T04:29:13;5.10;87.60
52245;DHT22;55759;51.586;-1.758;2024-03-08T04:31:40;5.10;87.60
52245;DHT22;55759;51.586;-1.758;2024-03-08T04:34:05;5.10;87.50
52245;DHT22;55759;51.586;-1.758;2024-03-08T04:36:31;5.10;87.50
52245;DHT22;55759;51.586;-1.758;2024-03-08T04:38:56;5.10;87.60
52245;DHT22;55759;51.586;-1.758;2024-03-08T04:41:22;5.10;87.60
52245;DHT22;55759;51.586;-1.758;2024-03-08T04:43:48;5.00;87.60
52245;DHT22;55759;51.586;-1.758;2024-03-08T04:46:14;4.90;87.60
52245;DHT22;55759;51.586;-1.758;2024-03-08T04:48:40;4.90;87.70
52245;DHT22;55759;51.586;-1.758;2024-03-08T04:51:07;4.90;87.90
52245;DHT22;55759;51.586;-1.758;2024-03-08T04:53:33;4.80;88.00
52245;DHT22;55759;51.586;-1.758;2024-03-08T04:55:59;4.70;88.10
52245;DHT22;55759;51.586;-1.758;2024-03-08T04:58:25;4.70;88.20
52245;DHT22;55759;51.586;-1.758;2024-03-08T05:00:51;4.70;88.30
52245;DHT22;55759;51.586;-1.758;2024-03-08T05:03:16;4.60;88.40
52245;DHT22;55759;51.586;-1.758;2024-03-08T05:05:42;4.50;88.60
52245;DHT22;55759;51.586;-1.758;2024-03-08T05:08:07;4.50;88.70
52245;DHT22;55759;51.586;-1.758;2024-03-08T05:10:33;4.50;88.90
52245;DHT22;55759;51.586;-1.758;2024-03-08T05:12:58;4.40;89.00
52245;DHT22;55759;51.586;-1.758;2024-03-08T05:15:24;4.40;89.00
52245;DHT22;55759;51.586;-1.758;2024-03-08T05:17:50;4.40;89.00
52245;DHT22;55759;51.586;-1.758;2024-03-08T05:20:15;4.40;89.10
52245;DHT22;55759;51.586;-1.758;2024-03-08T05:22:42;4.40;89.20
52245;DHT22;55759;51.586;-1.758;2024-03-08T05:25:08;4.30;89.20
52245;DHT22;55759;51.586;-1.758;2024-03-08T05:27:34;4.30;89.20
52245;DHT22;55759;51.586;-1.758;2024-03-08T05:30:00;4.30;89.30
52245;DHT22;55759;51.586;-1.758;2024-03-08T05:32:25;4.20;89.40
52245;DHT22;55759;51.586;-1.758;2024-03-08T05:34:51;4.30;89.50
52245;DHT22;55759;51.586;-1.758;2024-03-08T05:37:17;4.20;89.50
52245;DHT22;55759;51.586;-1.758;2024-03-08T05:39:45;4.20;89.60
52245;DHT22;55759;51.586;-1.758;2024-03-08T05:42:11;4.20;89.60
52245;DHT22;55759;51.586;-1.758;2024-03-08T05:44:36;4.30;89.70
52245;DHT22;55759;51.586;-1.758;2024-03-08T05:47:02;4.20;89.60
52245;DHT22;55759;51.586;-1.758;2024-03-08T05:49:27;4.20;89.60
52245;DHT22;55759;51.586;-1.758;2024-03-08T05:51:53;4.20;89.70
52245;DHT22;55759;51.586;-1.758;2024-03-08T05:54:19;4.20;89.70
52245;DHT22;55759;51.586;-1.758;2024-03-08T05:56:47;4.20;89.80
52245;DHT22;55759;51.586;-1.758;2024-03-08T05:59:13;4.20;89.80
52245;DHT22;55759;51.586;-1.758;2024-03-08T06:01:38;4.20;89.70
52245;DHT22;55759;51.586;-1.758;2024-03-08T06:04:06;4.20;89.70
52245;DHT22;55759;51.586;-1.758;2024-03-08T06:06:32;4.20;89.70
52245;DHT22;55759;51.586;-1.758;2024-03-08T06:08:58;4.20;89.80
52245;DHT22;55759;51.586;-1.758;2024-03-08T06:11:24;4.10;89.80
52245;DHT22;55759;51.586;-1.758;2024-03-08T06:13:52;4.10;89.80
52245;DHT22;55759;51.586;-1.758;2024-03-08T06:16:25;4.10;89.80
52245;DHT22;55759;51.586;-1.758;2024-03-08T06:18:57;4.10;89.80
52245;DHT22;55759;51.586;-1.758;2024-03-08T06:21:23;4.10;89.90
52245;DHT22;55759;51.586;-1.758;2024-03-08T06:23:52;4.10;89.90
52245;DHT22;55759;51.586;-1.758;2024-03-08T06:26:20;4.10;89.90
52245;DHT22;55759;51.586;-1.758;2024-03-08T06:28:46;4.00;89.90
52245;DHT22;55759;51.586;-1.758;2024-03-08T06:31:11;4.00;90.00
52245;DHT22;55759;51.586;-1.758;2024-03-08T06:33:37;4.00;90.00
52245;DHT22;55759;51.586;-1.758;2024-03-08T06:36:04;4.00;90.10
52245;DHT22;55759;51.586;-1.758;2024-03-08T06:38:29;4.00;90.30
52245;DHT22;55759;51.586;-1.758;2024-03-08T06:40:55;4.10;90.40
52245;DHT22;55759;51.586;-1.758;2024-03-08T06:43:21;4.10;90.50
52245;DHT22;55759;51.586;-1.758;2024-03-08T06:45:47;4.20;90.50
52245;DHT22;55759;51.586;-1.758;2024-03-08T06:48:16;4.30;90.40
52245;DHT22;55759;51.586;-1.758;2024-03-08T06:50:45;4.40;90.30
52245;DHT22;55759;51.586;-1.758;2024-03-08T06:53:12;4.60;90.00
52245;DHT22;55759;51.586;-1.758;2024-03-08T06:55:37;4.60;89.70
52245;DHT22;55759;51.586;-1.758;2024-03-08T06:58:03;4.70;89.30
52245;DHT22;55759;51.586;-1.758;2024-03-08T07:00:29;4.80;89.10
52245;DHT22;55759;51.586;-1.758;2024-03-08T07:02:56;4.90;88.70
52245;DHT22;55759;51.586;-1.758;2024-03-08T07:05:22;5.00;88.40
52245;DHT22;55759;51.586;-1.758;2024-03-08T07:07:49;5.10;88.10
52245;DHT22;55759;51.586;-1.758;2024-03-08T07:10:16;5.10;87.90
52245;DHT22;55759;51.586;-1.758;2024-03-08T07:12:42;5.10;87.80
52245;DHT22;55759;51.586;-1.758;2024-03-08T07:15:07;5.10;87.70
52245;DHT22;55759;51.586;-1.758;2024-03-08T07:17:33;5.20;87.60
52245;DHT22;55759;51.586;-1.758;2024-03-08T07:20:00;5.20;87.10
52245;DHT22;55759;51.586;-1.758;2024-03-08T07:22:32;5.30;87.00
52245;DHT22;55759;51.586;-1.758;2024-03-08T07:24:58;5.30;86.90
52245;DHT22;55759;51.586;-1.758;2024-03-08T07:27:43;5.40;86.50
52245;DHT22;55759;51.586;-1.758;2024-03-08T07:30:09;5.30;86.40
52245;DHT22;55759;51.586;-1.758;2024-03-08T07:32:37;5.30;86.30
52245;DHT22;55759;51.586;-1.758;2024-03-08T07:35:03;5.30;86.30
52245;DHT22;55759;51.586;-1.758;2024-03-08T07:37:29;5.20;86.20
52245;DHT22;55759;51.586;-1.758;2024-03-08T07:39:54;5.20;86.30
52245;DHT22;55759;51.586;-1.758;2024-03-08T07:42:20;5.10;86.50
52245;DHT22;55759;51.586;-1.758;2024-03-08T07:44:47;5.10;86.50
52245;DHT22;55759;51.586;-1.758;2024-03-08T07:47:13;5.10;86.60
52245;DHT22;55759;51.586;-1.758;2024-03-08T07:49:39;5.20;86.50
52245;DHT22;55759;51.586;-1.758;2024-03-08T07:52:05;5.30;86.30
52245;DHT22;55759;51.586;-1.758;2024-03-08T07:54:33;5.40;86.00
52245;DHT22;55759;51.586;-1.758;2024-03-08T07:56:59;5.50;85.60
52245;DHT22;55759;51.586;-1.758;2024-03-08T07:59:24;5.50;85.30
52245;DHT22;55759;51.586;-1.758;2024-03-08T08:01:50;5.60;85.20
52245;DHT22;55759;51.586;-1.758;2024-03-08T08:04:15;5.70;84.60
52245;DHT22;55759;51.586;-1.758;2024-03-08T08:06:43;5.70;84.30
52245;DHT22;55759;51.586;-1.758;2024-03-08T08:09:09;5.80;84.00
52245;DHT22;55759;51.586;-1.758;2024-03-08T08:11:42;5.90;83.60
52245;DHT22;55759;51.586;-1.758;2024-03-08T08:14:11;5.90;83.40
52245;DHT22;55759;51.586;-1.758;2024-03-08T08:16:37;5.90;83.10
52245;DHT22;55759;51.586;-1.758;2024-03-08T08:19:03;6.00;82.60
52245;DHT22;55759;51.586;-1.758;2024-03-08T08:21:34;6.10;82.30
52245;DHT22;55759;51.586;-1.758;2024-03-08T08:23:59;6.10;82.10
52245;DHT22;55759;51.586;-1.758;2024-03-08T08:26:25;6.10;81.90
52245;DHT22;55759;51.586;-1.758;2024-03-08T08:28:51;6.10;81.50
52245;DHT22;55759;51.586;-1.758;2024-03-08T08:31:18;6.20;81.40
52245;DHT22;55759;51.586;-1.758;2024-03-08T08:33:44;6.20;81.30
52245;DHT22;55759;51.586;-1.758;2024-03-08T08:36:10;6.20;80.90
52245;DHT22;55759;51.586;-1.758;2024-03-08T08:38:35;6.20;80.90
52245;DHT22;55759;51.586;-1.758;2024-03-08T08:41:01;6.30;81.20
52245;DHT22;55759;51.586;-1.758;2024-03-08T08:43:27;6.40;80.80
52245;DHT22;55759;51.586;-1.758;2024-03-08T08:45:53;6.40;81.00
52245;DHT22;55759;51.586;-1.758;2024-03-08T08:48:20;6.50;80.60
52245;DHT22;55759;51.586;-1.758;2024-03-08T08:50:46;6.50;80.20
52245;DHT22;55759;51.586;-1.758;2024-03-08T08:53:15;6.60;80.00
52245;DHT22;55759;51.586;-1.758;2024-03-08T08:55:42;6.70;79.50
52245;DHT22;55759;51.586;-1.758;2024-03-08T08:58:08;6.70;79.50
52245;DHT22;55759;51.586;-1.758;2024-03-08T09:00:33;6.90;79.50
52245;DHT22;55759;51.586;-1.758;2024-03-08T09:03:00;6.90;78.80
52245;DHT22;55759;51.586;-1.758;2024-03-08T09:05:25;6.90;78.40
52245;DHT22;55759;51.586;-1.758;2024-03-08T09:07:51;7.00;78.20
52245;DHT22;55759;51.586;-1.758;2024-03-08T09:10:18;7.00;78.30
52245;DHT22;55759;51.586;-1.758;2024-03-08T09:12:44;6.90;78.00
52245;DHT22;55759;51.586;-1.758;2024-03-08T09:15:09;7.00;77.80
52245;DHT22;55759;51.586;-1.758;2024-03-08T09:17:38;7.10;77.60
52245;DHT22;55759;51.586;-1.758;2024-03-08T09:20:06;7.10;77.30
52245;DHT22;55759;51.586;-1.758;2024-03-08T09:22:34;7.20;77.40
52245;DHT22;55759;51.586;-1.758;2024-03-08T09:24:59;7.30;76.90
52245;DHT22;55759;51.586;-1.758;2024-03-08T09:27:25;7.40;76.80
52245;DHT22;55759;51.586;-1.758;2024-03-08T09:29:50;7.50;76.60
52245;DHT22;55759;51.586;-1.758;2024-03-08T09:32:16;7.50;76.10
52245;DHT22;55759;51.586;-1.758;2024-03-08T09:34:42;7.50;75.60
52245;DHT22;55759;51.586;-1.758;2024-03-08T09:37:07;7.50;76.10
52245;DHT22;55759;51.586;-1.758;2024-03-08T09:39:34;7.60;75.90
52245;DHT22;55759;51.586;-1.758;2024-03-08T09:42:00;7.60;75.60
52245;DHT22;55759;51.586;-1.758;2024-03-08T09:44:26;7.70;75.30
52245;DHT22;55759;51.586;-1.758;2024-03-08T09:46:54;7.80;75.00
52245;DHT22;55759;51.586;-1.758;2024-03-08T09:49:20;7.90;75.00
52245;DHT22;55759;51.586;-1.758;2024-03-08T09:51:46;8.10;74.70
52245;DHT22;55759;51.586;-1.758;2024-03-08T09:54:12;8.20;73.70
52245;DHT22;55759;51.586;-1.758;2024-03-08T09:56:38;8.10;73.10
52245;DHT22;55759;51.586;-1.758;2024-03-08T09:59:06;8.20;73.80
52245;DHT22;55759;51.586;-1.758;2024-03-08T10:01:58;8.30;73.20
52245;DHT22;55759;51.586;-1.758;2024-03-08T10:04:25;8.40;72.60
52245;DHT22;55759;51.586;-1.758;2024-03-08T10:06:53;8.60;71.90
52245;DHT22;55759;51.586;-1.758;2024-03-08T10:09:19;8.70;72.30
52245;DHT22;55759;51.586;-1.758;2024-03-08T10:11:46;9.00;71.50
52245;DHT22;55759;51.586;-1.758;2024-03-08T10:14:11;9.10;70.20
52245;DHT22;55759;51.586;-1.758;2024-03-08T10:16:38;9.10;69.90
52245;DHT22;55759;51.586;-1.758;2024-03-08T10:19:04;9.00;70.00
52245;DHT22;55759;51.586;-1.758;2024-03-08T10:21:31;9.00;70.30
52245;DHT22;55759;51.586;-1.758;2024-03-08T10:23:58;8.90;69.50
52245;DHT22;55759;51.586;-1.758;2024-03-08T10:26:24;8.80;69.50
52245;DHT22;55759;51.586;-1.758;2024-03-08T10:28:53;8.70;70.20
52245;DHT22;55759;51.586;-1.758;2024-03-08T10:31:19;8.60;70.20
52245;DHT22;55759;51.586;-1.758;2024-03-08T10:33:48;8.40;70.30
52245;DHT22;55759;51.586;-1.758;2024-03-08T10:36:14;8.40;70.70
52245;DHT22;55759;51.586;-1.758;2024-03-08T10:38:41;8.20;71.30
52245;DHT22;55759;51.586;-1.758;2024-03-08T10:41:07;8.20;71.90
52245;DHT22;55759;51.586;-1.758;2024-03-08T10:48:55;8.60;71.20
52245;DHT22;55759;51.586;-1.758;2024-03-08T10:51:24;8.70;70.40
52245;DHT22;55759;51.586;-1.758;2024-03-08T10:53:52;8.90;69.50
52245;DHT22;55759;51.586;-1.758;2024-03-08T10:56:17;9.00;69.00
52245;DHT22;55759;51.586;-1.758;2024-03-08T10:58:43;9.00;68.30
52245;DHT22;55759;51.586;-1.758;2024-03-08T11:01:09;8.80;68.60
52245;DHT22;55759;51.586;-1.758;2024-03-08T11:06:08;8.90;68.30
52245;DHT22;55759;51.586;-1.758;2024-03-08T11:08:37;8.90;68.10
52245;DHT22;55759;51.586;-1.758;2024-03-08T11:11:04;8.90;68.50
52245;DHT22;55759;51.586;-1.758;2024-03-08T11:13:36;8.90;68.10
52245;DHT22;55759;51.586;-1.758;2024-03-08T11:16:48;8.90;68.20
52245;DHT22;55759;51.586;-1.758;2024-03-08T11:18:49;8.90;68.30
52245;DHT22;55759;51.586;-1.758;2024-03-08T11:21:14;8.90;68.60
52245;DHT22;55759;51.586;-1.758;2024-03-08T11:23:40;8.80;68.60
52245;DHT22;55759;51.586;-1.758;2024-03-08T11:26:24;8.90;68.50
52245;DHT22;55759;51.586;-1.758;2024-03-08T11:28:50;8.90;68.30
52245;DHT22;55759;51.586;-1.758;2024-03-08T11:31:22;9.20;67.90
52245;DHT22;55759;51.586;-1.758;2024-03-08T11:33:48;9.30;67.20
52245;DHT22;55759;51.586;-1.758;2024-03-08T11:36:23;9.40;66.80
52245;DHT22;55759;51.586;-1.758;2024-03-08T11:38:49;9.40;67.40
52245;DHT22;55759;51.586;-1.758;2024-03-08T11:41:20;9.60;66.60
52245;DHT22;55759;51.586;-1.758;2024-03-08T11:43:46;9.70;65.80
52245;DHT22;55759;51.586;-1.758;2024-03-08T11:46:13;9.80;65.80
52245;DHT22;55759;51.586;-1.758;2024-03-08T11:48:40;10.00;64.70
52245;DHT22;55759;51.586;-1.758;2024-03-08T11:51:10;10.20;64.40
52245;DHT22;55759;51.586;-1.758;2024-03-08T11:53:37;10.30;63.60
52245;DHT22;55759;51.586;-1.758;2024-03-08T11:56:13;10.40;63.20
52245;DHT22;55759;51.586;-1.758;2024-03-08T11:58:39;10.50;63.20
52245;DHT22;55759;51.586;-1.758;2024-03-08T12:01:09;10.50;63.00
52245;DHT22;55759;51.586;-1.758;2024-03-08T12:03:38;10.70;63.20
52245;DHT22;55759;51.586;-1.758;2024-03-08T12:06:04;10.90;62.40
52245;DHT22;55759;51.586;-1.758;2024-03-08T12:08:32;10.90;62.10
52245;DHT22;55759;51.586;-1.758;2024-03-08T12:10:58;10.90;62.00
52245;DHT22;55759;51.586;-1.758;2024-03-08T12:13:27;11.00;61.60
52245;DHT22;55759;51.586;-1.758;2024-03-08T12:16:04;11.00;61.00
52245;DHT22;55759;51.586;-1.758;2024-03-08T12:18:32;11.00;60.30
52245;DHT22;55759;51.586;-1.758;2024-03-08T12:23:33;11.40;58.60
52245;DHT22;55759;51.586;-1.758;2024-03-08T12:26:08;11.30;58.90
52245;DHT22;55759;51.586;-1.758;2024-03-08T12:28:38;11.30;58.20
52245;DHT22;55759;51.586;-1.758;2024-03-08T12:31:04;11.20;58.60
52245;DHT22;55759;51.586;-1.758;2024-03-08T12:33:34;11.20;58.50
52245;DHT22;55759;51.586;-1.758;2024-03-08T12:36:00;11.50;58.00
52245;DHT22;55759;51.586;-1.758;2024-03-08T12:38:28;11.80;56.70
52245;DHT22;55759;51.586;-1.758;2024-03-08T12:41:00;11.90;55.60
52245;DHT22;55759;51.586;-1.758;2024-03-08T12:43:26;11.90;54.60
52245;DHT22;55759;51.586;-1.758;2024-03-08T12:45:55;11.80;54.70
52245;DHT22;55759;51.586;-1.758;2024-03-08T12:48:21;11.80;54.70
52245;DHT22;55759;51.586;-1.758;2024-03-08T12:50:46;11.60;55.40
52245;DHT22;55759;51.586;-1.758;2024-03-08T12:53:13;12.00;54.80
52245;DHT22;55759;51.586;-1.758;2024-03-08T12:55:39;12.60;53.00
52245;DHT22;55759;51.586;-1.758;2024-03-08T12:58:06;13.30;51.40
52245;DHT22;55759;51.586;-1.758;2024-03-08T13:00:33;13.70;50.00
52245;DHT22;55759;51.586;-1.758;2024-03-08T13:03:01;14.10;48.90
52245;DHT22;55759;51.586;-1.758;2024-03-08T13:05:27;14.50;47.10
52245;DHT22;55759;51.586;-1.758;2024-03-08T13:07:53;14.50;47.20
52245;DHT22;55759;51.586;-1.758;2024-03-08T13:10:20;14.80;45.80
52245;DHT22;55759;51.586;-1.758;2024-03-08T13:12:45;15.10;45.20
52245;DHT22;55759;51.586;-1.758;2024-03-08T13:15:11;15.40;44.50
52245;DHT22;55759;51.586;-1.758;2024-03-08T13:17:41;15.40;43.90
52245;DHT22;55759;51.586;-1.758;2024-03-08T13:20:08;15.60;43.30
52245;DHT22;55759;51.586;-1.758;2024-03-08T13:22:34;16.10;42.00
52245;DHT22;55759;51.586;-1.758;2024-03-08T13:25:00;16.80;40.80
52245;DHT22;55759;51.586;-1.758;2024-03-08T13:27:27;17.80;40.10
52245;DHT22;55759;51.586;-1.758;2024-03-08T13:29:53;19.50;37.80
52245;DHT22;55759;51.586;-1.758;2024-03-08T13:32:18;20.20;35.50
52245;DHT22;55759;51.586;-1.758;2024-03-08T13:34:46;20.10;37.20
52245;DHT22;55759;51.586;-1.758;2024-03-08T13:37:12;19.90;35.80
52245;DHT22;55759;51.586;-1.758;2024-03-08T13:39:41;19.50;36.00
52245;DHT22;55759;51.586;-1.758;2024-03-08T13:42:15;19.10;36.30
52245;DHT22;55759;51.586;-1.758;2024-03-08T13:44:45;20.10;35.30
52245;DHT22;55759;51.586;-1.758;2024-03-08T13:47:14;20.80;33.70
52245;DHT22;55759;51.586;-1.758;2024-03-08T13:49:40;21.00;36.30
52245;DHT22;55759;51.586;-1.758;2024-03-08T13:52:06;21.30;36.50
52245;DHT22;55759;51.586;-1.758;2024-03-08T13:54:34;22.20;32.10
52245;DHT22;55759;51.586;-1.758;2024-03-08T13:57:00;22.10;32.30
52245;DHT22;55759;51.586;-1.758;2024-03-08T13:59:29;21.80;31.90
52245;DHT22;55759;51.586;-1.758;2024-03-08T14:01:55;22.40;31.20
52245;DHT22;55759;51.586;-1.758;2024-03-08T14:04:21;22.40;30.60
52245;DHT22;55759;51.586;-1.758;2024-03-08T14:06:47;22.70;31.30
52245;DHT22;55759;51.586;-1.758;2024-03-08T14:09:14;23.00;31.70
52245;DHT22;55759;51.586;-1.758;2024-03-08T14:11:45;23.30;30.00
52245;DHT22;55759;51.586;-1.758;2024-03-08T14:14:11;23.40;29.60
52245;DHT22;55759;51.586;-1.758;2024-03-08T14:16:40;23.30;29.80
52245;DHT22;55759;51.586;-1.758;2024-03-08T14:19:06;22.90;29.40
52245;DHT22;55759;51.586;-1.758;2024-03-08T14:21:32;22.80;30.40
52245;DHT22;55759;51.586;-1.758;2024-03-08T14:23:58;22.20;31.30
52245;DHT22;55759;51.586;-1.758;2024-03-08T14:26:23;21.60;32.80
52245;DHT22;55759;51.586;-1.758;2024-03-08T14:28:49;21.80;32.70
52245;DHT22;55759;51.586;-1.758;2024-03-08T14:31:22;22.20;30.60
52245;DHT22;55759;51.586;-1.758;2024-03-08T14:33:53;22.00;31.50
52245;DHT22;55759;51.586;-1.758;2024-03-08T14:36:20;22.30;33.00
52245;DHT22;55759;51.586;-1.758;2024-03-08T14:38:46;22.90;30.90
52245;DHT22;55759;51.586;-1.758;2024-03-08T14:41:12;23.00;31.90
52245;DHT22;55759;51.586;-1.758;2024-03-08T14:43:42;23.00;30.30
52245;DHT22;55759;51.586;-1.758;2024-03-08T14:46:13;21.90;31.20
52245;DHT22;55759;51.586;-1.758;2024-03-08T14:48:51;20.30;34.10
52245;DHT22;55759;51.586;-1.758;2024-03-08T14:51:17;18.50;36.10
52245;DHT22;55759;51.586;-1.758;2024-03-08T14:53:45;16.90;39.10
52245;DHT22;55759;51.586;-1.758;2024-03-08T14:56:14;15.70;41.90
52245;DHT22;55759;51.586;-1.758;2024-03-08T14:58:43;14.90;43.10
52245;DHT22;55759;51.586;-1.758;2024-03-08T15:01:11;14.20;45.70
52245;DHT22;55759;51.586;-1.758;2024-03-08T15:03:39;13.80;45.80
52245;DHT22;55759;51.586;-1.758;2024-03-08T15:06:05;13.50;47.40
52245;DHT22;55759;51.586;-1.758;2024-03-08T15:08:35;13.10;48.50
52245;DHT22;55759;51.586;-1.758;2024-03-08T15:11:01;13.00;49.50
52245;DHT22;55759;51.586;-1.758;2024-03-08T15:13:26;12.90;49.80
52245;DHT22;55759;51.586;-1.758;2024-03-08T15:16:09;12.80;49.70
52245;DHT22;55759;51.586;-1.758;2024-03-08T15:18:42;12.60;49.90
52245;DHT22;55759;51.586;-1.758;2024-03-08T15:21:11;12.40;50.10
52245;DHT22;55759;51.586;-1.758;2024-03-08T15:23:37;12.30;49.80
52245;DHT22;55759;51.586;-1.758;2024-03-08T15:26:08;12.10;50.20
52245;DHT22;55759;51.586;-1.758;2024-03-08T15:28:34;12.00;50.80
52245;DHT22;55759;51.586;-1.758;2024-03-08T15:31:05;11.80;51.60
52245;DHT22;55759;51.586;-1.758;2024-03-08T15:33:32;11.80;51.60
52245;DHT22;55759;51.586;-1.758;2024-03-08T15:35:57;11.80;50.90